Terminal Aerodrome Forecast
Issued by NWS

Home | Current Version | Previous Version | Graphics & Text | Print | Product List | Glossary On
Versions: 1 2 3 4 5 6 7 8 9 10 11 12 13 14
000
FTUS43 KOAX 301740
TAFCDR
TAF
KCDR 301740Z 3018/3118 27012KT P6SM FEW250
     FM302300 34013KT P6SM VCTS SCT250CB
     FM310300 02009KT P6SM VCSH BKN200
     FM310800 32007KT P6SM BKN110
     FM310900 31006KT P6SM SCT090=

USA.gov is the U.S. government's official web portal to all federal, state and local government web resources and services.